sensor_id;sensor_type;location;lat;lon;timestamp;pressure;altitude;pressure_sealevel;temperature;humidity
73306;BME280;61530;51.158;0.880;2022-07-18T00:00:30;1018.88;;;17.3125;35.0939
73306;BME280;61530;51.158;0.880;2022-07-18T00:01:30;1018.97;;;17.375;34.7833
73306;BME280;61530;51.158;0.880;2022-07-18T00:02:31;1019.05;;;17.5;34.6655
73306;BME280;61530;51.158;0.880;2022-07-18T00:03:31;1019.11;;;17.5625;34.7585
73306;BME280;61530;51.158;0.880;2022-07-18T00:04:32;1019.17;;;17.6875;34.5175
73306;BME280;61530;51.158;0.880;2022-07-18T00:05:33;1019.22;;;17.8125;34.4236
73306;BME280;61530;51.158;0.880;2022-07-18T00:06:39;1019.27;;;17.8125;34.6838
73306;BME280;61530;51.158;0.880;2022-07-18T00:07:39;1019.39;;;17.875;34.1589
73306;BME280;61530;51.158;0.880;2022-07-18T00:08:39;1019.48;;;17.9375;34.6314
73306;BME280;61530;51.158;0.880;2022-07-18T00:09:41;1019.53;;;17.9375;34.0644
73306;BME280;61530;51.158;0.880;2022-07-18T00:10:40;1019.52;;;18.0;34.1513
73306;BME280;61530;51.158;0.880;2022-07-18T00:11:41;1019.47;;;18.0625;33.7379
73306;BME280;61530;51.158;0.880;2022-07-18T00:12:42;1019.42;;;18.1875;34.3727
73306;BME280;61530;51.158;0.880;2022-07-18T00:13:48;1019.37;;;18.125;32.5791
73306;BME280;61530;51.158;0.880;2022-07-18T00:14:54;1019.35;;;18.125;33.5252
73306;BME280;61530;51.158;0.880;2022-07-18T00:15:54;1019.35;;;18.0;33.8237
73306;BME280;61530;51.158;0.880;2022-07-18T00:16:54;1019.36;;;18.0;33.6885
73306;BME280;61530;51.158;0.880;2022-07-18T00:17:55;1019.38;;;18.0;33.7407
73306;BME280;61530;51.158;0.880;2022-07-18T00:18:56;1019.4;;;18.0;33.786
73306;BME280;61530;51.158;0.880;2022-07-18T00:19:56;1019.41;;;18.0;34.0656
73306;BME280;61530;51.158;0.880;2022-07-18T00:20:57;1019.38;;;18.125;33.4474
73306;BME280;61530;51.158;0.880;2022-07-18T00:21:57;1019.34;;;18.125;33.9803
73306;BME280;61530;51.158;0.880;2022-07-18T00:22:57;1019.35;;;18.125;34.1192
73306;BME280;61530;51.158;0.880;2022-07-18T00:23:58;1019.37;;;18.125;33.0498
73306;BME280;61530;51.158;0.880;2022-07-18T00:24:58;1019.38;;;18.0625;33.5226
73306;BME280;61530;51.158;0.880;2022-07-18T00:25:59;1019.34;;;18.1875;34.1125
73306;BME280;61530;51.158;0.880;2022-07-18T00:27:00;1019.33;;;18.25;33.4897
73306;BME280;61530;51.158;0.880;2022-07-18T00:28:06;1019.33;;;18.25;34.395
73306;BME280;61530;51.158;0.880;2022-07-18T00:29:11;1019.32;;;18.1875;34.1945
73306;BME280;61530;51.158;0.880;2022-07-18T00:30:12;1019.29;;;18.25;33.3548
73306;BME280;61530;51.158;0.880;2022-07-18T00:31:12;1019.33;;;18.25;33.7986
73306;BME280;61530;51.158;0.880;2022-07-18T00:32:13;1019.32;;;18.25;34.0724
73306;BME280;61530;51.158;0.880;2022-07-18T00:33:13;1019.33;;;18.25;33.644
73306;BME280;61530;51.158;0.880;2022-07-18T00:34:14;1019.31;;;18.3125;33.7948
73306;BME280;61530;51.158;0.880;2022-07-18T00:35:15;1019.26;;;18.375;33.5974
73306;BME280;61530;51.158;0.880;2022-07-18T00:36:21;1019.26;;;18.25;33.3044
73306;BME280;61530;51.158;0.880;2022-07-18T00:37:26;1019.28;;;18.25;33.5152
73306;BME280;61530;51.158;0.880;2022-07-18T00:38:27;1019.26;;;18.3125;33.7844
73306;BME280;61530;51.158;0.880;2022-07-18T00:39:27;1019.27;;;18.25;34.6581
73306;BME280;61530;51.158;0.880;2022-07-18T00:40:28;1019.25;;;18.25;33.1825
73306;BME280;61530;51.158;0.880;2022-07-18T00:41:28;1019.21;;;18.3125;33.7505
73306;BME280;61530;51.158;0.880;2022-07-18T00:42:29;1019.18;;;18.25;33.1365
73306;BME280;61530;51.158;0.880;2022-07-18T00:43:30;1019.14;;;18.25;33.9944
73306;BME280;61530;51.158;0.880;2022-07-18T00:44:36;1019.1;;;18.3125;33.8143
73306;BME280;61530;51.158;0.880;2022-07-18T00:45:36;1019.09;;;18.3125;34.0771
73306;BME280;61530;51.158;0.880;2022-07-18T00:46:36;1019.09;;;18.3125;33.4048
73306;BME280;61530;51.158;0.880;2022-07-18T00:47:37;1019.1;;;18.3125;33.9465
73306;BME280;61530;51.158;0.880;2022-07-18T00:48:38;1019.15;;;18.25;33.9653
73306;BME280;61530;51.158;0.880;2022-07-18T00:49:38;1019.18;;;18.3125;34.8072
73306;BME280;61530;51.158;0.880;2022-07-18T00:50:39;1019.23;;;18.25;33.5513
73306;BME280;61530;51.158;0.880;2022-07-18T00:51:39;1019.22;;;18.3125;34.0473
73306;BME280;61530;51.158;0.880;2022-07-18T00:52:39;1019.18;;;18.3125;32.8801
73306;BME280;61530;51.158;0.880;2022-07-18T00:53:40;1019.17;;;18.3125;34.1059
73306;BME280;61530;51.158;0.880;2022-07-18T00:54:40;1019.13;;;18.3125;33.9028
73306;BME280;61530;51.158;0.880;2022-07-18T00:55:44;1019.12;;;18.25;34.3106
73306;BME280;61530;51.158;0.880;2022-07-18T00:56:42;1019.12;;;18.25;33.5009
73306;BME280;61530;51.158;0.880;2022-07-18T00:57:47;1019.09;;;18.25;34.522
73306;BME280;61530;51.158;0.880;2022-07-18T00:58:48;1019.08;;;18.25;33.8447
73306;BME280;61530;51.158;0.880;2022-07-18T00:59:51;1019.1;;;18.25;34.44
73306;BME280;61530;51.158;0.880;2022-07-18T01:00:51;1019.09;;;18.25;33.9567
73306;BME280;61530;51.158;0.880;2022-07-18T01:01:51;1019.09;;;18.25;34.0213
73306;BME280;61530;51.158;0.880;2022-07-18T01:02:52;1019.05;;;18.25;33.789
73306;BME280;61530;51.158;0.880;2022-07-18T01:03:53;1019.04;;;18.25;33.731
73306;BME280;61530;51.158;0.880;2022-07-18T01:04:53;1019.04;;;18.1875;34.0984
73306;BME280;61530;51.158;0.880;2022-07-18T01:05:53;1019.02;;;18.1875;33.9747
73306;BME280;61530;51.158;0.880;2022-07-18T01:06:54;1018.99;;;18.1875;34.4541
73306;BME280;61530;51.158;0.880;2022-07-18T01:07:55;1018.93;;;18.1875;34.262
73306;BME280;61530;51.158;0.880;2022-07-18T01:09:00;1018.88;;;18.1875;33.6446
73306;BME280;61530;51.158;0.880;2022-07-18T01:10:01;1018.89;;;18.1875;34.3733
73306;BME280;61530;51.158;0.880;2022-07-18T01:11:02;1018.87;;;18.1875;34.9209
73306;BME280;61530;51.158;0.880;2022-07-18T01:12:09;1018.87;;;18.1875;34.1288
73306;BME280;61530;51.158;0.880;2022-07-18T01:13:08;1018.86;;;18.1875;34.7346
73306;BME280;61530;51.158;0.880;2022-07-18T01:14:08;1018.87;;;18.1875;34.7006
73306;BME280;61530;51.158;0.880;2022-07-18T01:15:09;1018.91;;;18.1875;34.2919
73306;BME280;61530;51.158;0.880;2022-07-18T01:16:09;1018.89;;;18.1875;34.9452
73306;BME280;61530;51.158;0.880;2022-07-18T01:17:14;1018.91;;;18.1875;34.7222
73306;BME280;61530;51.158;0.880;2022-07-18T01:18:10;1018.89;;;18.1875;34.8626
73306;BME280;61530;51.158;0.880;2022-07-18T01:19:12;1018.85;;;18.1875;33.976
73306;BME280;61530;51.158;0.880;2022-07-18T01:20:12;1018.82;;;18.1875;34.3558
73306;BME280;61530;51.158;0.880;2022-07-18T01:21:12;1018.83;;;18.1875;33.8645
73306;BME280;61530;51.158;0.880;2022-07-18T01:22:14;1018.83;;;18.125;34.6525
73306;BME280;61530;51.158;0.880;2022-07-18T01:23:13;1018.84;;;18.125;34.2626
73306;BME280;61530;51.158;0.880;2022-07-18T01:24:13;1018.82;;;18.1875;34.4559
73306;BME280;61530;51.158;0.880;2022-07-18T01:25:14;1018.82;;;18.0625;34.4327
73306;BME280;61530;51.158;0.880;2022-07-18T01:26:20;1018.81;;;18.125;34.2516
73306;BME280;61530;51.158;0.880;2022-07-18T01:27:26;1018.78;;;18.125;34.2412
73306;BME280;61530;51.158;0.880;2022-07-18T01:28:26;1018.78;;;18.1875;34.4348
73306;BME280;61530;51.158;0.880;2022-07-18T01:29:27;1018.78;;;18.125;34.3933
73306;BME280;61530;51.158;0.880;2022-07-18T01:30:27;1018.78;;;18.125;34.6325
73306;BME280;61530;51.158;0.880;2022-07-18T01:31:28;1018.77;;;18.0625;35.2213
73306;BME280;61530;51.158;0.880;2022-07-18T01:32:28;1018.76;;;18.0625;35.5304
73306;BME280;61530;51.158;0.880;2022-07-18T01:33:31;1018.78;;;18.0625;34.4805
73306;BME280;61530;51.158;0.880;2022-07-18T01:34:29;1018.84;;;18.0625;35.4133
73306;BME280;61530;51.158;0.880;2022-07-18T01:35:31;1018.9;;;18.0;35.1392
73306;BME280;61530;51.158;0.880;2022-07-18T01:36:30;1018.91;;;18.0;34.4175
73306;BME280;61530;51.158;0.880;2022-07-18T01:37:31;1018.94;;;18.0;34.5526
73306;BME280;61530;51.158;0.880;2022-07-18T01:38:32;1018.96;;;17.9375;34.9208
73306;BME280;61530;51.158;0.880;2022-07-18T01:39:33;1018.89;;;18.0;34.887
73306;BME280;61530;51.158;0.880;2022-07-18T01:40:38;1018.84;;;18.0625;34.9339
73306;BME280;61530;51.158;0.880;2022-07-18T01:41:44;1018.74;;;17.9375;34.9564
73306;BME280;61530;51.158;0.880;2022-07-18T01:42:44;1018.74;;;18.0;35.3927
73306;BME280;61530;51.158;0.880;2022-07-18T01:43:45;1018.71;;;17.875;34.6995
73306;BME280;61530;51.158;0.880;2022-07-18T01:44:45;1018.73;;;18.0;34.8622
73306;BME280;61530;51.158;0.880;2022-07-18T01:45:46;1018.67;;;17.9375;35.008
73306;BME280;61530;51.158;0.880;2022-07-18T01:46:46;1018.63;;;17.875;35.0555
73306;BME280;61530;51.158;0.880;2022-07-18T01:47:48;1018.62;;;17.9375;36.075
73306;BME280;61530;51.158;0.880;2022-07-18T01:48:53;1018.62;;;17.875;35.2015
73306;BME280;61530;51.158;0.880;2022-07-18T01:49:59;1018.59;;;17.875;34.7697
73306;BME280;61530;51.158;0.880;2022-07-18T01:50:59;1018.59;;;17.8125;34.9911
73306;BME280;61530;51.158;0.880;2022-07-18T01:52:00;1018.56;;;17.75;35.5383
73306;BME280;61530;51.158;0.880;2022-07-18T01:53:00;1018.49;;;17.875;35.5228
73306;BME280;61530;51.158;0.880;2022-07-18T01:54:01;1018.46;;;17.875;35.4345
73306;BME280;61530;51.158;0.880;2022-07-18T01:55:03;1018.45;;;17.8125;35.7613
73306;BME280;61530;51.158;0.880;2022-07-18T01:56:03;1018.48;;;17.8125;35.5867
73306;BME280;61530;51.158;0.880;2022-07-18T01:57:09;1018.54;;;17.8125;35.476
73306;BME280;61530;51.158;0.880;2022-07-18T01:58:08;1018.56;;;17.75;35.3617
73306;BME280;61530;51.158;0.880;2022-07-18T01:59:09;1018.5;;;17.8125;35.289
73306;BME280;61530;51.158;0.880;2022-07-18T02:00:11;1018.47;;;17.75;35.3479
73306;BME280;61530;51.158;0.880;2022-07-18T02:01:10;1018.44;;;17.8125;35.5976
73306;BME280;61530;51.158;0.880;2022-07-18T02:02:10;1018.42;;;17.75;35.3706
73306;BME280;61530;51.158;0.880;2022-07-18T02:03:11;1018.42;;;17.8125;34.8176
73306;BME280;61530;51.158;0.880;2022-07-18T02:04:17;1018.45;;;17.75;34.9512
73306;BME280;61530;51.158;0.880;2022-07-18T02:05:23;1018.52;;;17.75;35.0564
73306;BME280;61530;51.158;0.880;2022-07-18T02:06:23;1018.57;;;17.8125;35.2543
73306;BME280;61530;51.158;0.880;2022-07-18T02:07:24;1018.62;;;17.8125;35.3369
73306;BME280;61530;51.158;0.880;2022-07-18T02:08:24;1018.61;;;17.8125;35.3249
73306;BME280;61530;51.158;0.880;2022-07-18T02:09:25;1018.62;;;17.875;35.2314
73306;BME280;61530;51.158;0.880;2022-07-18T02:10:25;1018.61;;;17.8125;35.5647
73306;BME280;61530;51.158;0.880;2022-07-18T02:11:26;1018.61;;;17.875;36.0658
73306;BME280;61530;51.158;0.880;2022-07-18T02:12:26;1018.56;;;17.8125;35.828
73306;BME280;61530;51.158;0.880;2022-07-18T02:13:27;1018.55;;;17.6875;36.1246
73306;BME280;61530;51.158;0.880;2022-07-18T02:14:28;1018.53;;;17.75;35.5832
73306;BME280;61530;51.158;0.880;2022-07-18T02:15:28;1018.53;;;17.6875;35.7804
73306;BME280;61530;51.158;0.880;2022-07-18T02:16:28;1018.55;;;17.75;35.7281
73306;BME280;61530;51.158;0.880;2022-07-18T02:17:29;1018.58;;;17.6875;35.2742
73306;BME280;61530;51.158;0.880;2022-07-18T02:18:35;1018.64;;;17.75;35.6639
73306;BME280;61530;51.158;0.880;2022-07-18T02:19:41;1018.69;;;17.6875;36.1817
73306;BME280;61530;51.158;0.880;2022-07-18T02:20:41;1018.73;;;17.6875;35.1347
73306;BME280;61530;51.158;0.880;2022-07-18T02:21:42;1018.76;;;17.8125;35.6066
73306;BME280;61530;51.158;0.880;2022-07-18T02:22:43;1018.79;;;17.75;35.3745
73306;BME280;61530;51.158;0.880;2022-07-18T02:23:44;1018.85;;;17.6875;36.1429
73306;BME280;61530;51.158;0.880;2022-07-18T02:24:43;1018.84;;;17.75;36.2008
73306;BME280;61530;51.158;0.880;2022-07-18T02:25:44;1018.86;;;17.75;35.4562
73306;BME280;61530;51.158;0.880;2022-07-18T02:26:50;1018.85;;;17.6875;35.7358
73306;BME280;61530;51.158;0.880;2022-07-18T02:27:56;1018.85;;;17.75;35.7832
73306;BME280;61530;51.158;0.880;2022-07-18T02:28:56;1018.87;;;17.6875;35.8998
73306;BME280;61530;51.158;0.880;2022-07-18T02:29:57;1018.9;;;17.625;37.0868
73306;BME280;61530;51.158;0.880;2022-07-18T02:30:57;1018.92;;;17.625;35.8775
73306;BME280;61530;51.158;0.880;2022-07-18T02:31:58;1018.91;;;17.5625;36.3822
73306;BME280;61530;51.158;0.880;2022-07-18T02:32:58;1018.89;;;17.5625;36.1259
73306;BME280;61530;51.158;0.880;2022-07-18T02:33:59;1018.82;;;17.5625;35.6266
73306;BME280;61530;51.158;0.880;2022-07-18T02:35:07;1018.81;;;17.5625;35.6422
73306;BME280;61530;51.158;0.880;2022-07-18T02:36:05;1018.9;;;17.4375;35.6364
73306;BME280;61530;51.158;0.880;2022-07-18T02:37:06;1018.98;;;17.5625;35.1769
73306;BME280;61530;51.158;0.880;2022-07-18T02:38:09;1019.0;;;17.5625;35.6084
73306;BME280;61530;51.158;0.880;2022-07-18T02:39:10;1018.93;;;17.5;35.6959
73306;BME280;61530;51.158;0.880;2022-07-18T02:40:11;1018.85;;;17.4375;36.3011
73306;BME280;61530;51.158;0.880;2022-07-18T02:41:10;1018.85;;;17.5625;35.7769
73306;BME280;61530;51.158;0.880;2022-07-18T02:42:11;1018.85;;;17.5625;36.8938
73306;BME280;61530;51.158;0.880;2022-07-18T02:43:12;1018.86;;;17.5625;35.8535
73306;BME280;61530;51.158;0.880;2022-07-18T02:44:18;1018.9;;;17.5625;35.388
73306;BME280;61530;51.158;0.880;2022-07-18T02:45:18;1018.93;;;17.5;36.179
73306;BME280;61530;51.158;0.880;2022-07-18T02:46:18;1018.92;;;17.5625;36.2082
73306;BME280;61530;51.158;0.880;2022-07-18T02:47:19;1018.88;;;17.5;35.883
73306;BME280;61530;51.158;0.880;2022-07-18T02:48:19;1018.84;;;17.5;35.9065
73306;BME280;61530;51.158;0.880;2022-07-18T02:49:20;1018.81;;;17.5;36.3562
73306;BME280;61530;51.158;0.880;2022-07-18T02:50:21;1018.8;;;17.5;36.3207
73306;BME280;61530;51.158;0.880;2022-07-18T02:51:27;1018.83;;;17.375;35.977
73306;BME280;61530;51.158;0.880;2022-07-18T02:52:29;1018.82;;;17.4375;36.1925
73306;BME280;61530;51.158;0.880;2022-07-18T02:53:30;1018.79;;;17.375;36.2963
73306;BME280;61530;51.158;0.880;2022-07-18T02:54:32;1018.77;;;17.4375;35.9589
73306;BME280;61530;51.158;0.880;2022-07-18T02:55:31;1018.73;;;17.4375;35.9361
73306;BME280;61530;51.158;0.880;2022-07-18T02:56:31;1018.73;;;17.4375;35.9484
73306;BME280;61530;51.158;0.880;2022-07-18T02:57:32;1018.72;;;17.4375;36.1348
73306;BME280;61530;51.158;0.880;2022-07-18T02:58:33;1018.71;;;17.4375;36.6992
73306;BME280;61530;51.158;0.880;2022-07-18T02:59:33;1018.71;;;17.4375;36.519
73306;BME280;61530;51.158;0.880;2022-07-18T03:00:33;1018.74;;;17.4375;36.4799
73306;BME280;61530;51.158;0.880;2022-07-18T03:01:34;1018.74;;;17.375;36.497
73306;BME280;61530;51.158;0.880;2022-07-18T03:02:34;1018.77;;;17.375;35.9503
73306;BME280;61530;51.158;0.880;2022-07-18T03:03:35;1018.76;;;17.4375;36.5142
73306;BME280;61530;51.158;0.880;2022-07-18T03:04:35;1018.76;;;17.4375;36.2986
73306;BME280;61530;51.158;0.880;2022-07-18T03:05:36;1018.77;;;17.3125;36.5785
73306;BME280;61530;51.158;0.880;2022-07-18T03:06:36;1018.8;;;17.375;36.6127
73306;BME280;61530;51.158;0.880;2022-07-18T03:07:37;1018.8;;;17.375;36.3979
73306;BME280;61530;51.158;0.880;2022-07-18T03:08:37;1018.79;;;17.3125;36.5276
73306;BME280;61530;51.158;0.880;2022-07-18T03:09:38;1018.8;;;17.3125;36.4861
73306;BME280;61530;51.158;0.880;2022-07-18T03:10:38;1018.81;;;17.3125;36.7813
73306;BME280;61530;51.158;0.880;2022-07-18T03:11:40;1018.78;;;17.25;36.7811
73306;BME280;61530;51.158;0.880;2022-07-18T03:12:45;1018.79;;;17.3125;36.3733
73306;BME280;61530;51.158;0.880;2022-07-18T03:13:45;1018.77;;;17.3125;36.7692
73306;BME280;61530;51.158;0.880;2022-07-18T03:14:46;1018.74;;;17.3125;36.9032
73306;BME280;61530;51.158;0.880;2022-07-18T03:15:46;1018.75;;;17.3125;36.9555
73306;BME280;61530;51.158;0.880;2022-07-18T03:16:47;1018.75;;;17.25;36.6651
73306;BME280;61530;51.158;0.880;2022-07-18T03:17:47;1018.72;;;17.1875;36.4381
73306;BME280;61530;51.158;0.880;2022-07-18T03:18:48;1018.73;;;17.25;36.304
73306;BME280;61530;51.158;0.880;2022-07-18T03:19:48;1018.73;;;17.25;35.6951
73306;BME280;61530;51.158;0.880;2022-07-18T03:20:49;1018.76;;;17.25;36.5432
73306;BME280;61530;51.158;0.880;2022-07-18T03:21:49;1018.77;;;17.25;37.9612
73306;BME280;61530;51.158;0.880;2022-07-18T03:22:50;1018.74;;;17.25;36.5318
73306;BME280;61530;51.158;0.880;2022-07-18T03:23:50;1018.73;;;17.25;36.2595
73306;BME280;61530;51.158;0.880;2022-07-18T03:24:51;1018.71;;;17.25;36.8466
73306;BME280;61530;51.158;0.880;2022-07-18T03:25:57;1018.72;;;17.25;36.91
73306;BME280;61530;51.158;0.880;2022-07-18T03:26:57;1018.72;;;17.1875;36.8693
73306;BME280;61530;51.158;0.880;2022-07-18T03:27:58;1018.72;;;17.3125;37.4734
73306;BME280;61530;51.158;0.880;2022-07-18T03:28:58;1018.71;;;17.3125;36.8401
73306;BME280;61530;51.158;0.880;2022-07-18T03:29:59;1018.68;;;17.25;36.7647
73306;BME280;61530;51.158;0.880;2022-07-18T03:30:59;1018.65;;;17.1875;36.9742
73306;BME280;61530;51.158;0.880;2022-07-18T03:32:00;1018.62;;;17.25;37.1254
73306;BME280;61530;51.158;0.880;2022-07-18T03:33:06;1018.66;;;17.25;37.2354
73306;BME280;61530;51.158;0.880;2022-07-18T03:34:12;1018.62;;;17.1875;36.8291
73306;BME280;61530;51.158;0.880;2022-07-18T03:35:12;1018.61;;;17.1875;36.7073
73306;BME280;61530;51.158;0.880;2022-07-18T03:36:13;1018.61;;;17.25;36.9407
73306;BME280;61530;51.158;0.880;2022-07-18T03:37:13;1018.63;;;17.25;37.0107
73306;BME280;61530;51.158;0.880;2022-07-18T03:38:14;1018.6;;;17.1875;36.9872
73306;BME280;61530;51.158;0.880;2022-07-18T03:39:14;1018.59;;;17.125;37.1031
73306;BME280;61530;51.158;0.880;2022-07-18T03:40:15;1018.62;;;17.25;36.8009
73306;BME280;61530;51.158;0.880;2022-07-18T03:41:21;1018.61;;;17.1875;36.1738
73306;BME280;61530;51.158;0.880;2022-07-18T03:42:27;1018.61;;;17.125;35.6622
73306;BME280;61530;51.158;0.880;2022-07-18T03:43:27;1018.57;;;17.0;37.3703
73306;BME280;61530;51.158;0.880;2022-07-18T03:44:28;1018.61;;;17.0;37.1785
73306;BME280;61530;51.158;0.880;2022-07-18T03:45:28;1018.62;;;17.0;36.5517
73306;BME280;61530;51.158;0.880;2022-07-18T03:46:29;1018.6;;;17.0;36.8831
73306;BME280;61530;51.158;0.880;2022-07-18T03:47:29;1018.6;;;17.0625;36.8715
73306;BME280;61530;51.158;0.880;2022-07-18T03:48:30;1018.61;;;17.0625;37.2266
73306;BME280;61530;51.158;0.880;2022-07-18T03:49:30;1018.61;;;17.0625;37.0056
73306;BME280;61530;51.158;0.880;2022-07-18T03:50:31;1018.62;;;17.125;36.8604
73306;BME280;61530;51.158;0.880;2022-07-18T03:51:32;1018.62;;;17.0625;36.9764
73306;BME280;61530;51.158;0.880;2022-07-18T03:52:32;1018.59;;;17.0625;36.9707
73306;BME280;61530;51.158;0.880;2022-07-18T03:53:32;1018.59;;;17.0625;36.8791
73306;BME280;61530;51.158;0.880;2022-07-18T03:54:33;1018.59;;;17.0;37.3361
73306;BME280;61530;51.158;0.880;2022-07-18T03:55:39;1018.58;;;17.125;37.3248
73306;BME280;61530;51.158;0.880;2022-07-18T03:56:39;1018.54;;;17.0;37.3252
73306;BME280;61530;51.158;0.880;2022-07-18T03:57:40;1018.55;;;17.0;37.244
73306;BME280;61530;51.158;0.880;2022-07-18T03:58:40;1018.53;;;17.0;36.7507
73306;BME280;61530;51.158;0.880;2022-07-18T03:59:41;1018.54;;;17.0625;36.9714
73306;BME280;61530;51.158;0.880;2022-07-18T04:00:41;1018.54;;;17.0;36.8497
73306;BME280;61530;51.158;0.880;2022-07-18T04:01:42;1018.56;;;17.0;36.3971
73306;BME280;61530;51.158;0.880;2022-07-18T04:02:44;1018.56;;;17.0625;37.1402
73306;BME280;61530;51.158;0.880;2022-07-18T04:03:43;1018.56;;;17.0;37.1407
73306;BME280;61530;51.158;0.880;2022-07-18T04:04:43;1018.54;;;17.0;37.3375
73306;BME280;61530;51.158;0.880;2022-07-18T04:05:44;1018.5;;;17.0;36.9373
73306;BME280;61530;51.158;0.880;2022-07-18T04:06:44;1018.48;;;17.0;37.0879
73306;BME280;61530;51.158;0.880;2022-07-18T04:07:47;1018.5;;;17.0;37.3492
73306;BME280;61530;51.158;0.880;2022-07-18T04:08:48;1018.49;;;17.0;36.4556
73306;BME280;61530;51.158;0.880;2022-07-18T04:09:48;1018.48;;;17.0625;37.4718
73306;BME280;61530;51.158;0.880;2022-07-18T04:10:49;1018.48;;;17.0625;37.3025
73306;BME280;61530;51.158;0.880;2022-07-18T04:11:49;1018.46;;;17.0625;36.8677
73306;BME280;61530;51.158;0.880;2022-07-18T04:12:53;1018.45;;;17.0;37.9297
73306;BME280;61530;51.158;0.880;2022-07-18T04:13:50;1018.44;;;17.0;37.6456
73306;BME280;61530;51.158;0.880;2022-07-18T04:14:51;1018.43;;;17.0625;37.344
73306;BME280;61530;51.158;0.880;2022-07-18T04:15:52;1018.42;;;17.0;37.4659
73306;BME280;61530;51.158;0.880;2022-07-18T04:16:57;1018.43;;;17.0625;37.4542
73306;BME280;61530;51.158;0.880;2022-07-18T04:17:58;1018.42;;;17.125;37.709
73306;BME280;61530;51.158;0.880;2022-07-18T04:18:58;1018.43;;;17.0;37.2686
73306;BME280;61530;51.158;0.880;2022-07-18T04:19:58;1018.43;;;17.0;38.3007
73306;BME280;61530;51.158;0.880;2022-07-18T04:20:59;1018.42;;;17.0;36.8736
73306;BME280;61530;51.158;0.880;2022-07-18T04:21:59;1018.42;;;17.0;36.896
73306;BME280;61530;51.158;0.880;2022-07-18T04:23:03;1018.43;;;17.0625;36.8848
73306;BME280;61530;51.158;0.880;2022-07-18T04:24:07;1018.45;;;17.0625;36.6712
73306;BME280;61530;51.158;0.880;2022-07-18T04:25:13;1018.46;;;17.0;37.0824
73306;BME280;61530;51.158;0.880;2022-07-18T04:26:13;1018.44;;;17.0;36.9084
73306;BME280;61530;51.158;0.880;2022-07-18T04:27:13;1018.44;;;17.0;36.7686
73306;BME280;61530;51.158;0.880;2022-07-18T04:28:14;1018.45;;;17.0;37.0121
73306;BME280;61530;51.158;0.880;2022-07-18T04:29:14;1018.44;;;17.0;37.0815
73306;BME280;61530;51.158;0.880;2022-07-18T04:30:16;1018.42;;;16.9375;36.7453
73306;BME280;61530;51.158;0.880;2022-07-18T04:31:15;1018.44;;;16.9375;37.2387
73306;BME280;61530;51.158;0.880;2022-07-18T04:32:16;1018.43;;;16.9375;37.1229
73306;BME280;61530;51.158;0.880;2022-07-18T04:33:16;1018.4;;;16.875;37.1754
73306;BME280;61530;51.158;0.880;2022-07-18T04:34:17;1018.4;;;16.9375;37.1863
73306;BME280;61530;51.158;0.880;2022-07-18T04:35:17;1018.4;;;16.9375;38.4514
73306;BME280;61530;51.158;0.880;2022-07-18T04:36:17;1018.37;;;17.0;37.2032
73306;BME280;61530;51.158;0.880;2022-07-18T04:37:19;1018.37;;;17.0;37.0818
73306;BME280;61530;51.158;0.880;2022-07-18T04:38:24;1018.35;;;16.9375;36.4488
73306;BME280;61530;51.158;0.880;2022-07-18T04:39:24;1018.36;;;17.0;37.6388
73306;BME280;61530;51.158;0.880;2022-07-18T04:40:25;1018.35;;;16.9375;37.1104
73306;BME280;61530;51.158;0.880;2022-07-18T04:41:26;1018.37;;;16.9375;36.8143
73306;BME280;61530;51.158;0.880;2022-07-18T04:42:26;1018.35;;;16.875;37.5925
73306;BME280;61530;51.158;0.880;2022-07-18T04:43:27;1018.38;;;16.875;37.7085
73306;BME280;61530;51.158;0.880;2022-07-18T04:44:27;1018.37;;;16.9375;37.1232
73306;BME280;61530;51.158;0.880;2022-07-18T04:45:28;1018.37;;;16.9375;37.3548
73306;BME280;61530;51.158;0.880;2022-07-18T04:46:28;1018.38;;;17.0;37.2563
73306;BME280;61530;51.158;0.880;2022-07-18T04:47:29;1018.37;;;16.9375;37.0592
73306;BME280;61530;51.158;0.880;2022-07-18T04:48:29;1018.37;;;17.0;37.1235
73306;BME280;61530;51.158;0.880;2022-07-18T04:49:30;1018.36;;;17.0;37.1642
73306;BME280;61530;51.158;0.880;2022-07-18T04:50:31;1018.37;;;16.9375;37.6046
73306;BME280;61530;51.158;0.880;2022-07-18T04:51:36;1018.37;;;17.0;37.3482
73306;BME280;61530;51.158;0.880;2022-07-18T04:52:38;1018.36;;;17.0625;37.1745
73306;BME280;61530;51.158;0.880;2022-07-18T04:53:37;1018.34;;;16.9375;36.7975
73306;BME280;61530;51.158;0.880;2022-07-18T04:54:37;1018.33;;;16.875;37.2679
73306;BME280;61530;51.158;0.880;2022-07-18T04:55:38;1018.34;;;16.875;37.6679
73306;BME280;61530;51.158;0.880;2022-07-18T04:56:38;1018.33;;;16.8125;37.0115
73306;BME280;61530;51.158;0.880;2022-07-18T04:57:40;1018.32;;;16.8125;37.231
73306;BME280;61530;51.158;0.880;2022-07-18T04:58:40;1018.3;;;16.8125;37.15
73306;BME280;61530;51.158;0.880;2022-07-18T04:59:40;1018.29;;;16.875;37.0219
73306;BME280;61530;51.158;0.880;2022-07-18T05:00:41;1018.27;;;16.875;37.2427
73306;BME280;61530;51.158;0.880;2022-07-18T05:01:41;1018.26;;;16.9375;37.0798
73306;BME280;61530;51.158;0.880;2022-07-18T05:02:42;1018.27;;;17.0;36.9062
73306;BME280;61530;51.158;0.880;2022-07-18T05:03:43;1018.28;;;17.0;37.4989
73306;BME280;61530;51.158;0.880;2022-07-18T05:04:48;1018.27;;;17.0625;37.1214
73306;BME280;61530;51.158;0.880;2022-07-18T05:05:49;1018.27;;;17.0;37.388
73306;BME280;61530;51.158;0.880;2022-07-18T05:06:49;1018.25;;;17.0;37.6197
73306;BME280;61530;51.158;0.880;2022-07-18T05:07:50;1018.22;;;17.0625;37.3288
73306;BME280;61530;51.158;0.880;2022-07-18T05:08:50;1018.24;;;17.0625;37.2066
73306;BME280;61530;51.158;0.880;2022-07-18T05:09:51;1018.21;;;17.0625;36.5099
73306;BME280;61530;51.158;0.880;2022-07-18T05:10:51;1018.18;;;17.0625;36.3119
73306;BME280;61530;51.158;0.880;2022-07-18T05:11:52;1018.17;;;17.0;36.3228
73306;BME280;61530;51.158;0.880;2022-07-18T05:12:53;1018.19;;;16.9375;37.3401
73306;BME280;61530;51.158;0.880;2022-07-18T05:13:52;1018.14;;;16.9375;37.218
73306;BME280;61530;51.158;0.880;2022-07-18T05:14:53;1018.15;;;17.0;37.2883
73306;BME280;61530;51.158;0.880;2022-07-18T05:15:54;1018.15;;;17.0;37.5197
73306;BME280;61530;51.158;0.880;2022-07-18T05:16:55;1018.15;;;17.0;35.8687